createdAt,value
2019-02-21T00:00:59.772Z,6.60
2019-02-21T00:03:26.122Z,6.62
2019-02-21T00:05:52.424Z,6.59
2019-02-21T00:08:18.831Z,6.63
2019-02-21T00:10:46.150Z,6.69
2019-02-21T00:13:13.003Z,6.72
2019-02-21T00:15:39.328Z,6.81
2019-02-21T00:18:05.857Z,6.71
2019-02-21T00:20:34.857Z,6.68
2019-02-21T00:23:04.496Z,6.67
2019-02-21T00:25:30.922Z,6.73
2019-02-21T00:27:57.098Z,6.85
2019-02-21T00:30:23.221Z,6.78
2019-02-21T00:32:49.340Z,6.76
2019-02-21T00:35:15.624Z,6.76
2019-02-21T00:37:41.878Z,6.73
2019-02-21T00:40:08.135Z,6.69
2019-02-21T00:42:34.285Z,6.65
2019-02-21T00:45:00.432Z,6.65
2019-02-21T00:47:31.353Z,6.67
2019-02-21T00:49:57.426Z,6.67
2019-02-21T00:52:23.554Z,6.63
2019-02-21T00:54:49.774Z,6.64
2019-02-21T00:57:15.923Z,6.68
2019-02-21T00:59:43.395Z,6.67
2019-02-21T01:02:09.763Z,6.68
2019-02-21T01:04:36.067Z,6.70
2019-02-21T01:07:04.401Z,6.72
2019-02-21T01:09:33.108Z,6.86
2019-02-21T01:12:00.338Z,6.82
2019-02-21T01:14:32.167Z,6.72
2019-02-21T01:16:58.377Z,6.66
2019-02-21T01:19:24.630Z,6.69
2019-02-21T01:21:50.830Z,6.76
2019-02-21T01:24:17.170Z,6.68
2019-02-21T01:26:43.543Z,6.72
2019-02-21T01:29:10.444Z,6.67
2019-02-21T01:31:36.808Z,6.65
2019-02-21T01:34:04.522Z,6.69
2019-02-21T01:36:31.905Z,6.76
2019-02-21T01:38:58.269Z,6.83
2019-02-21T01:41:25.500Z,6.80
2019-02-21T01:43:51.731Z,6.80
2019-02-21T01:46:17.962Z,6.74
2019-02-21T01:48:44.177Z,6.71
2019-02-21T01:51:10.403Z,6.68
2019-02-21T01:53:36.552Z,6.57
2019-02-21T01:56:05.157Z,6.57
2019-02-21T01:58:31.422Z,6.51
2019-02-21T02:01:08.070Z,6.56
2019-02-21T02:03:34.233Z,6.56
2019-02-21T02:06:04.561Z,6.54
2019-02-21T02:08:30.977Z,6.53
2019-02-21T02:10:57.387Z,6.59
2019-02-21T02:13:24.978Z,6.51
2019-02-21T02:15:51.492Z,6.40
2019-02-21T02:18:18.316Z,6.39
2019-02-21T02:20:48.563Z,6.42
2019-02-21T02:23:14.887Z,6.57
2019-02-21T02:25:41.099Z,6.45
2019-02-21T02:28:07.221Z,6.53
2019-02-21T02:30:33.757Z,6.54
2019-02-21T02:33:00.006Z,6.46
2019-02-21T02:35:32.269Z,6.52
2019-02-21T02:37:58.493Z,6.44
2019-02-21T02:40:24.821Z,6.45
2019-02-21T02:42:51.154Z,6.52
2019-02-21T02:45:17.276Z,6.42
2019-02-21T02:47:43.497Z,6.25
2019-02-21T02:50:12.579Z,6.14
2019-02-21T02:52:38.723Z,6.05
2019-02-21T02:55:05.186Z,6.15
2019-02-21T02:57:31.303Z,6.19
2019-02-21T03:00:03.997Z,6.16
2019-02-21T03:02:30.478Z,6.18
2019-02-21T03:04:56.617Z,6.25
2019-02-21T03:07:23.266Z,6.25
2019-02-21T03:09:49.378Z,6.24
2019-02-21T03:12:15.696Z,6.20
2019-02-21T03:14:41.805Z,6.13
2019-02-21T03:17:07.984Z,6.09
2019-02-21T03:19:35.289Z,6.16
2019-02-21T03:22:04.838Z,6.18
2019-02-21T03:24:31.139Z,6.20
2019-02-21T03:26:57.395Z,6.19
2019-02-21T03:29:23.609Z,6.32
2019-02-21T03:31:54.988Z,6.37
2019-02-21T03:34:18.002Z,6.43
2019-02-21T03:36:44.191Z,6.50
2019-02-21T03:39:10.416Z,6.46
2019-02-21T03:41:36.669Z,6.49
2019-02-21T03:44:05.486Z,6.44
2019-02-21T03:46:31.796Z,6.42
2019-02-21T03:48:58.035Z,6.44
2019-02-21T03:51:24.169Z,6.39
2019-02-21T03:53:50.468Z,6.41
2019-02-21T03:56:16.745Z,6.37
2019-02-21T03:58:43.583Z,6.38
2019-02-21T04:01:09.891Z,6.42
2019-02-21T04:03:36.203Z,6.39
2019-02-21T04:06:02.557Z,6.40
2019-02-21T04:08:28.896Z,6.29
2019-02-21T04:10:55.201Z,6.24
2019-02-21T04:13:21.641Z,6.20
2019-02-21T04:15:47.917Z,6.09
2019-02-21T04:18:14.302Z,6.08
2019-02-21T04:20:40.595Z,6.13
2019-02-21T04:23:06.858Z,6.05
2019-02-21T04:25:32.972Z,6.13
2019-02-21T04:27:59.322Z,6.12
2019-02-21T04:30:25.556Z,6.07
2019-02-21T04:32:51.705Z,6.10
2019-02-21T04:35:18.196Z,6.10
2019-02-21T04:37:44.418Z,6.09
2019-02-21T04:40:10.613Z,6.05
2019-02-21T04:42:37.029Z,6.10
2019-02-21T04:45:04.145Z,6.06
2019-02-21T04:47:30.328Z,6.09
2019-02-21T04:49:56.663Z,6.10
2019-02-21T04:52:23.019Z,6.03
2019-02-21T04:54:49.379Z,6.02
2019-02-21T04:57:15.653Z,5.90
2019-02-21T04:59:42.125Z,5.96
2019-02-21T05:02:08.397Z,5.95
2019-02-21T05:04:34.632Z,5.82
2019-02-21T05:07:00.936Z,5.73
2019-02-21T05:09:27.486Z,5.65
2019-02-21T05:11:53.648Z,5.64
2019-02-21T05:14:19.866Z,5.72
2019-02-21T05:16:46.119Z,5.69
2019-02-21T05:19:12.245Z,5.64
2019-02-21T05:21:38.569Z,5.50
2019-02-21T05:24:04.931Z,5.51
2019-02-21T05:26:39.367Z,5.53
2019-02-21T05:29:07.533Z,5.56
2019-02-21T05:31:47.692Z,5.54
2019-02-21T05:34:15.731Z,5.45
2019-02-21T05:37:00.377Z,5.36
2019-02-21T05:39:46.529Z,5.34
2019-02-21T05:42:14.698Z,5.27
2019-02-21T05:44:48.449Z,5.24
2019-02-21T05:47:22.657Z,5.23
2019-02-21T05:50:03.148Z,5.30
2019-02-21T05:52:31.188Z,5.27
2019-02-21T05:54:59.238Z,5.27
2019-02-21T05:57:42.345Z,5.26
2019-02-21T06:00:25.760Z,5.28
2019-02-21T06:02:56.480Z,5.18
2019-02-21T06:05:24.638Z,5.14
2019-02-21T06:08:09.175Z,5.02
2019-02-21T06:10:43.365Z,4.98
2019-02-21T06:13:17.505Z,4.99
2019-02-21T06:15:48.875Z,5.01
2019-02-21T06:18:26.090Z,5.05
2019-02-21T06:21:09.415Z,5.09
2019-02-21T06:23:49.531Z,4.98
2019-02-21T06:26:17.583Z,4.97
2019-02-21T06:28:53.443Z,4.94
2019-02-21T06:31:19.663Z,4.96
2019-02-21T06:33:45.751Z,4.95
2019-02-21T06:36:11.967Z,5.00
2019-02-21T06:38:38.080Z,4.98
2019-02-21T06:41:04.179Z,5.06
2019-02-21T06:43:30.293Z,4.97
2019-02-21T06:45:58.055Z,4.99
2019-02-21T06:48:24.402Z,4.96
2019-02-21T06:50:50.519Z,5.08
2019-02-21T06:53:16.687Z,5.15
2019-02-21T06:55:43.215Z,5.06
2019-02-21T06:58:09.533Z,5.03
2019-02-21T07:00:36.842Z,5.01
2019-02-21T07:03:03.180Z,5.17
2019-02-21T07:05:29.382Z,5.30
2019-02-21T07:07:55.602Z,5.26
2019-02-21T07:10:21.702Z,5.37
2019-02-21T07:12:47.952Z,5.38
2019-02-21T07:15:15.148Z,5.46
2019-02-21T07:17:48.769Z,5.49
2019-02-21T07:20:09.525Z,5.44
2019-02-21T07:22:35.798Z,5.46
2019-02-21T07:25:04.698Z,5.36
2019-02-21T07:27:31.822Z,5.37
2019-02-21T07:29:58.063Z,5.48
2019-02-21T07:32:24.266Z,5.46
2019-02-21T07:34:50.483Z,5.48
2019-02-21T07:37:18.885Z,5.59
2019-02-21T07:39:45.426Z,5.74
2019-02-21T07:42:11.529Z,5.70
2019-02-21T07:44:37.831Z,5.83
2019-02-21T07:47:04.017Z,5.97
2019-02-21T07:49:30.139Z,6.00
2019-02-21T07:51:56.343Z,6.08
2019-02-21T07:54:22.590Z,6.14
2019-02-21T07:56:48.970Z,6.24
2019-02-21T07:59:15.184Z,6.26
2019-02-21T08:01:41.496Z,6.32
2019-02-21T08:04:07.903Z,6.40
2019-02-21T08:06:34.087Z,6.47
2019-02-21T08:09:00.298Z,6.57
2019-02-21T08:11:26.701Z,6.56
2019-02-21T08:13:53.000Z,6.58
2019-02-21T08:16:19.364Z,6.67
2019-02-21T08:18:45.576Z,6.70
2019-02-21T08:21:12.988Z,6.71
2019-02-21T08:23:49.699Z,6.72
2019-02-21T08:26:07.204Z,6.84
2019-02-21T08:28:33.369Z,6.96
2019-02-21T08:30:59.824Z,7.04
2019-02-21T08:33:30.813Z,7.18
2019-02-21T08:35:57.929Z,7.27
2019-02-21T08:38:24.436Z,7.41
2019-02-21T08:40:53.229Z,7.51
2019-02-21T08:43:20.033Z,7.68
2019-02-21T08:45:46.271Z,7.79
2019-02-21T08:48:13.473Z,7.78
2019-02-21T08:50:40.152Z,7.95
2019-02-21T08:53:06.475Z,8.19
2019-02-21T08:55:32.735Z,8.20
2019-02-21T08:57:59.073Z,8.25
2019-02-21T09:00:25.211Z,8.28
2019-02-21T09:02:51.507Z,8.26
2019-02-21T09:05:17.950Z,8.21
2019-02-21T09:07:46.442Z,8.19
2019-02-21T09:10:12.712Z,8.19
2019-02-21T09:12:39.212Z,8.22
2019-02-21T09:15:08.948Z,8.19
2019-02-21T09:17:35.441Z,8.15
2019-02-21T09:20:01.706Z,8.16
2019-02-21T09:22:28.018Z,8.21
2019-02-21T09:24:54.140Z,8.40
2019-02-21T09:27:20.465Z,8.61
2019-02-21T09:29:46.747Z,8.80
2019-02-21T09:32:12.906Z,8.83
2019-02-21T09:34:39.288Z,8.92
2019-02-21T09:37:05.668Z,8.87
2019-02-21T09:39:31.907Z,8.82
2019-02-21T09:41:58.044Z,8.81
2019-02-21T09:44:27.390Z,8.92
2019-02-21T09:46:53.511Z,8.90
2019-02-21T09:49:19.789Z,8.80
2019-02-21T09:51:45.965Z,8.84
2019-02-21T09:54:12.076Z,8.87
2019-02-21T09:56:39.503Z,8.79
2019-02-21T09:59:05.792Z,8.82
2019-02-21T10:01:31.999Z,8.84
2019-02-21T10:03:58.119Z,8.85
2019-02-21T10:06:25.553Z,8.78
2019-02-21T10:08:51.944Z,8.76
2019-02-21T10:11:18.321Z,8.75
2019-02-21T10:13:44.732Z,8.79
2019-02-21T10:16:12.015Z,8.79
2019-02-21T10:18:38.222Z,8.81
2019-02-21T10:21:04.444Z,8.83
2019-02-21T10:23:30.686Z,8.81
2019-02-21T10:25:57.028Z,8.84
2019-02-21T10:28:23.251Z,8.78
2019-02-21T10:30:49.533Z,8.82
2019-02-21T10:33:15.707Z,8.87
2019-02-21T10:35:42.000Z,9.05
2019-02-21T10:38:08.177Z,9.12
2019-02-21T10:40:35.826Z,9.13
2019-02-21T10:43:07.789Z,9.26
2019-02-21T10:45:34.157Z,9.38
2019-02-21T10:48:05.459Z,9.49
2019-02-21T10:50:31.790Z,9.75
2019-02-21T10:55:30.578Z,9.67
2019-02-21T10:57:56.906Z,9.88
2019-02-21T11:00:31.529Z,9.74
2019-02-21T11:03:04.582Z,9.53
2019-02-21T11:05:30.971Z,9.47
2019-02-21T11:07:57.325Z,9.56
2019-02-21T11:10:27.393Z,9.61
2019-02-21T11:12:54.702Z,9.67
2019-02-21T11:15:22.763Z,9.68
2019-02-21T11:17:49.117Z,9.68
2019-02-21T11:20:19.298Z,9.83
2019-02-21T11:22:45.420Z,9.93
2019-02-21T11:25:13.724Z,9.93
2019-02-21T11:27:40.125Z,10.00
2019-02-21T11:30:15.151Z,10.04
2019-02-21T11:32:41.594Z,9.98
2019-02-21T11:35:07.917Z,10.17
2019-02-21T11:37:43.415Z,10.25
2019-02-21T11:40:09.033Z,10.32
2019-02-21T11:42:35.828Z,10.42
2019-02-21T11:45:15.951Z,10.66
2019-02-21T11:47:42.135Z,11.03
2019-02-21T11:50:10.962Z,11.03
2019-02-21T11:52:41.192Z,10.82
2019-02-21T11:55:10.425Z,10.54
2019-02-21T11:57:36.660Z,10.59
2019-02-21T12:00:10.166Z,10.83
2019-02-21T12:02:38.801Z,10.84
2019-02-21T12:05:17.508Z,10.85
2019-02-21T12:07:41.987Z,11.01
2019-02-21T12:10:15.378Z,11.14
2019-02-21T12:12:41.706Z,11.14
2019-02-21T12:15:17.351Z,11.08
2019-02-21T12:17:43.786Z,10.97
2019-02-21T12:20:15.640Z,10.94
2019-02-21T12:22:48.871Z,10.74
2019-02-21T12:25:22.657Z,10.74
2019-02-21T12:27:52.072Z,10.92
2019-02-21T12:30:19.192Z,11.11
2019-02-21T12:32:45.700Z,11.07
2019-02-21T12:35:12.054Z,11.05
2019-02-21T12:37:38.405Z,11.00
2019-02-21T12:40:15.743Z,10.70
2019-02-21T12:42:42.149Z,10.63
2019-02-21T12:45:11.636Z,10.56
2019-02-21T12:47:49.079Z,10.56
2019-02-21T12:50:09.341Z,10.51
2019-02-21T12:52:35.589Z,10.57
2019-02-21T12:55:05.930Z,10.52
2019-02-21T12:57:32.235Z,10.53
2019-02-21T12:59:58.447Z,10.41
2019-02-21T13:02:24.824Z,10.43
2019-02-21T13:04:51.059Z,10.41
2019-02-21T13:07:17.300Z,10.45
2019-02-21T13:09:43.431Z,10.38
2019-02-21T13:12:17.245Z,10.40
2019-02-21T13:14:43.443Z,10.43
2019-02-21T13:17:09.817Z,10.49
2019-02-21T13:19:36.190Z,10.52
2019-02-21T13:22:13.378Z,10.50
2019-02-21T13:24:39.965Z,10.61
2019-02-21T13:27:06.876Z,10.58
2019-02-21T13:29:33.472Z,10.61
2019-02-21T13:31:59.767Z,10.59
2019-02-21T13:34:26.028Z,10.62
2019-02-21T13:36:52.257Z,10.59
2019-02-21T13:39:18.485Z,10.65
2019-02-21T13:41:44.633Z,10.74
2019-02-21T13:44:11.064Z,10.82
2019-02-21T13:46:40.845Z,10.85
2019-02-21T13:49:08.860Z,10.80
2019-02-21T13:51:44.991Z,10.76
2019-02-21T13:54:11.526Z,10.81
2019-02-21T13:56:37.955Z,10.90
2019-02-21T13:59:08.318Z,10.82
2019-02-21T14:01:34.542Z,10.86
2019-02-21T14:04:13.182Z,10.82
2019-02-21T14:06:39.302Z,10.80
2019-02-21T14:09:09.671Z,10.85
2019-02-21T14:11:36.481Z,10.94
2019-02-21T14:14:02.897Z,10.92
2019-02-21T14:16:29.197Z,11.01
2019-02-21T14:18:56.547Z,11.03
2019-02-21T14:21:22.746Z,10.90
2019-02-21T14:23:48.881Z,10.89
2019-02-21T14:26:15.115Z,11.02
2019-02-21T14:28:42.570Z,11.03
2019-02-21T14:31:08.767Z,10.98
2019-02-21T14:33:35.035Z,11.03
2019-02-21T14:36:01.438Z,11.06
2019-02-21T14:38:28.479Z,11.08
2019-02-21T14:40:54.831Z,11.18
2019-02-21T14:43:21.155Z,11.10
2019-02-21T14:45:47.356Z,11.28
2019-02-21T14:48:13.650Z,11.23
2019-02-21T14:50:40.027Z,11.38
2019-02-21T14:53:06.398Z,11.62
2019-02-21T14:55:32.548Z,11.66
2019-02-21T14:57:59.001Z,11.82
2019-02-21T15:00:27.106Z,11.87
2019-02-21T15:02:53.562Z,11.86
2019-02-21T15:05:19.960Z,11.84
2019-02-21T15:07:46.424Z,11.84
2019-02-21T15:10:14.789Z,11.59
2019-02-21T15:12:41.161Z,11.53
2019-02-21T15:15:16.205Z,11.49
2019-02-21T15:17:42.576Z,11.32
2019-02-21T15:20:10.989Z,11.26
2019-02-21T15:22:37.329Z,11.24
2019-02-21T15:25:05.899Z,11.17
2019-02-21T15:27:32.244Z,11.16
2019-02-21T15:29:58.493Z,11.14
2019-02-21T15:32:24.868Z,11.13
2019-02-21T15:34:51.155Z,11.16
2019-02-21T15:37:17.439Z,11.17
2019-02-21T15:39:43.764Z,11.17
2019-02-21T15:42:09.985Z,11.06
2019-02-21T15:44:36.311Z,11.06
2019-02-21T15:47:02.939Z,11.03
2019-02-21T15:49:29.275Z,11.07
2019-02-21T15:51:55.801Z,11.02
2019-02-21T15:54:22.147Z,11.02
2019-02-21T15:56:48.441Z,11.03
2019-02-21T15:59:14.903Z,11.09
2019-02-21T16:01:47.594Z,11.01
2019-02-21T16:04:09.520Z,11.02
2019-02-21T16:06:37.952Z,11.03
2019-02-21T16:09:15.936Z,10.98
2019-02-21T16:11:34.751Z,10.97
2019-02-21T16:14:03.488Z,10.88
2019-02-21T16:16:29.778Z,10.94
2019-02-21T16:18:58.668Z,10.88
2019-02-21T16:21:24.497Z,10.89
2019-02-21T16:23:50.719Z,10.87
2019-02-21T16:26:16.971Z,10.89
2019-02-21T16:28:43.239Z,10.85
2019-02-21T16:31:09.542Z,10.82
2019-02-21T16:33:36.175Z,10.81
2019-02-21T16:36:03.706Z,10.83
2019-02-21T16:38:30.081Z,10.78
2019-02-21T16:40:56.393Z,10.79
2019-02-21T16:43:23.310Z,10.78
2019-02-21T16:45:53.636Z,10.88
2019-02-21T16:48:17.672Z,10.79
2019-02-21T16:50:43.808Z,10.72
2019-02-21T16:53:10.030Z,10.71
2019-02-21T16:55:36.266Z,10.70
2019-02-21T16:58:05.535Z,10.60
2019-02-21T17:00:42.380Z,10.60
2019-02-21T17:03:00.598Z,10.64
2019-02-21T17:05:27.348Z,10.64
2019-02-21T17:07:53.805Z,10.62
2019-02-21T17:10:20.031Z,10.61
2019-02-21T17:12:46.463Z,10.63
2019-02-21T17:15:14.928Z,10.66
2019-02-21T17:17:41.276Z,10.71
2019-02-21T17:20:11.208Z,10.66
2019-02-21T17:22:37.473Z,10.60
2019-02-21T17:25:06.913Z,10.57
2019-02-21T17:27:33.139Z,10.59
2019-02-21T17:29:59.544Z,10.56
2019-02-21T17:32:26.878Z,10.51
2019-02-21T17:34:53.141Z,10.55
2019-02-21T17:37:24.889Z,10.57
2019-02-21T17:39:47.971Z,10.58
2019-02-21T17:42:15.380Z,10.49
2019-02-21T17:44:41.614Z,10.45
2019-02-21T17:47:07.982Z,10.49
2019-02-21T17:49:34.274Z,10.45
2019-02-21T17:52:00.480Z,10.42
2019-02-21T17:54:27.723Z,10.41
2019-02-21T17:56:54.374Z,10.41
2019-02-21T17:59:20.570Z,10.40
2019-02-21T18:01:47.044Z,10.38
2019-02-21T18:04:13.525Z,10.25
2019-02-21T18:06:40.036Z,10.24
2019-02-21T18:09:06.508Z,10.23
2019-02-21T18:11:34.457Z,10.27
2019-02-21T18:14:00.661Z,10.19
2019-02-21T18:16:26.829Z,10.18
2019-02-21T18:18:53.173Z,10.12
2019-02-21T18:21:19.663Z,10.10
2019-02-21T18:23:45.940Z,10.10
2019-02-21T18:26:14.052Z,10.14
2019-02-21T18:28:40.322Z,10.11
2019-02-21T18:31:20.399Z,10.15
2019-02-21T18:33:46.639Z,10.12
2019-02-21T18:36:12.973Z,10.12
2019-02-21T18:38:39.429Z,10.18
2019-02-21T18:41:06.029Z,10.02
2019-02-21T18:43:32.606Z,10.01
2019-02-21T18:45:59.036Z,10.03
2019-02-21T18:48:25.197Z,9.97
2019-02-21T18:50:51.553Z,9.98
2019-02-21T18:53:17.889Z,10.06
2019-02-21T18:55:44.222Z,9.98
2019-02-21T18:58:10.589Z,10.00
2019-02-21T19:00:36.977Z,10.05
2019-02-21T19:03:03.302Z,10.01
2019-02-21T19:05:36.011Z,9.98
2019-02-21T19:08:05.013Z,9.95
2019-02-21T19:10:26.570Z,9.70
2019-02-21T19:12:53.021Z,9.62
2019-02-21T19:15:20.101Z,9.59
2019-02-21T19:17:46.459Z,9.48
2019-02-21T19:20:14.126Z,9.53
2019-02-21T19:22:40.358Z,9.45
2019-02-21T19:25:10.347Z,9.35
2019-02-21T19:27:37.606Z,9.32
2019-02-21T19:30:32.681Z,9.36
2019-02-21T19:32:59.101Z,9.31
2019-02-21T19:35:25.539Z,9.32
2019-02-21T19:37:52.104Z,9.28
2019-02-21T19:40:18.732Z,9.31
2019-02-21T19:42:45.177Z,9.31
2019-02-21T19:45:12.318Z,9.33
2019-02-21T19:47:38.687Z,9.48
2019-02-21T19:50:07.543Z,9.38
2019-02-21T19:52:35.006Z,9.41
2019-02-21T19:55:01.359Z,9.36
2019-02-21T19:57:28.690Z,9.42
2019-02-21T19:59:54.979Z,9.38
2019-02-21T20:02:21.475Z,9.32
2019-02-21T20:04:47.968Z,9.22
2019-02-21T20:07:14.444Z,9.12
2019-02-21T20:09:40.854Z,9.19
2019-02-21T20:12:07.284Z,9.11
2019-02-21T20:14:33.732Z,9.24
2019-02-21T20:17:00.655Z,9.21
2019-02-21T20:19:26.922Z,9.16
2019-02-21T20:21:54.547Z,9.20
2019-02-21T20:24:21.018Z,9.23
2019-02-21T20:26:47.478Z,9.19
2019-02-21T20:29:13.867Z,9.20
2019-02-21T20:31:40.332Z,9.22
2019-02-21T20:34:06.779Z,9.20
2019-02-21T20:36:33.249Z,9.21
2019-02-21T20:38:59.683Z,9.24
2019-02-21T20:41:25.930Z,9.19
2019-02-21T20:43:52.277Z,9.17
2019-02-21T20:46:30.470Z,9.18
2019-02-21T20:48:56.985Z,9.16
2019-02-21T20:51:23.440Z,9.25
2019-02-21T20:53:51.724Z,9.17
2019-02-21T20:56:18.208Z,9.22
2019-02-21T20:58:44.672Z,9.20
2019-02-21T21:01:12.516Z,9.22
2019-02-21T21:06:12.902Z,9.19
2019-02-21T21:08:43.146Z,9.25
2019-02-21T21:11:07.773Z,9.20
2019-02-21T21:13:34.449Z,9.19
2019-02-21T21:18:41.588Z,9.00
2019-02-21T21:21:08.227Z,8.91
2019-02-21T21:23:39.115Z,8.94
2019-02-21T21:26:07.106Z,8.90
2019-02-21T21:28:33.615Z,8.96
2019-02-21T21:30:59.883Z,8.90
2019-02-21T21:33:27.302Z,8.91
2019-02-21T21:35:54.505Z,9.00
2019-02-21T21:40:53.385Z,8.93
2019-02-21T21:43:19.578Z,8.98
2019-02-21T21:45:46.014Z,9.05
2019-02-21T21:48:12.226Z,8.93
2019-02-21T21:50:38.483Z,8.98
2019-02-21T21:53:04.945Z,8.91
2019-02-21T21:55:31.290Z,8.97
2019-02-21T21:58:04.133Z,9.01
2019-02-21T22:00:37.431Z,8.96
2019-02-21T22:03:05.082Z,9.01
2019-02-21T22:08:06.439Z,8.91
2019-02-21T22:10:32.658Z,8.88
2019-02-21T22:12:58.876Z,8.94
2019-02-21T22:15:25.089Z,9.01
2019-02-21T22:17:51.400Z,8.97
2019-02-21T22:20:17.845Z,8.97
2019-02-21T22:22:44.354Z,8.88
2019-02-21T22:25:12.085Z,8.94
2019-02-21T22:27:46.081Z,9.03
2019-02-21T22:30:16.107Z,9.01
2019-02-21T22:32:42.473Z,8.98
2019-02-21T22:35:09.122Z,9.03
2019-02-21T22:37:36.936Z,8.87
2019-02-21T22:40:06.935Z,8.88
2019-02-21T22:42:33.581Z,8.81
2019-02-21T22:44:59.979Z,8.87
2019-02-21T22:47:26.526Z,8.92
2019-02-21T22:49:55.940Z,8.93
2019-02-21T22:52:24.073Z,8.85
2019-02-21T22:54:50.359Z,8.82
2019-02-21T22:57:17.557Z,8.87
2019-02-21T22:59:43.793Z,8.93
2019-02-21T23:02:10.087Z,8.93
2019-02-21T23:04:40.187Z,8.96
2019-02-21T23:07:10.161Z,8.89
2019-02-21T23:09:36.787Z,8.81
2019-02-21T23:12:05.373Z,8.93
2019-02-21T23:14:31.650Z,8.89
2019-02-21T23:16:57.923Z,8.99
2019-02-21T23:19:24.372Z,9.04
2019-02-21T23:21:50.856Z,9.05
2019-02-21T23:24:17.213Z,9.03
2019-02-21T23:26:43.542Z,8.82
2019-02-21T23:29:10.914Z,8.88
2019-02-21T23:31:37.433Z,8.87
2019-02-21T23:34:06.980Z,8.92
2019-02-21T23:36:33.463Z,8.94
2019-02-21T23:38:59.747Z,8.87
2019-02-21T23:41:26.052Z,8.90
2019-02-21T23:43:52.346Z,8.96
2019-02-21T23:46:18.616Z,9.02
2019-02-21T23:48:44.842Z,8.99
2019-02-21T23:51:11.185Z,8.99
2019-02-21T23:53:37.477Z,8.95
2019-02-21T23:56:05.713Z,8.85
2019-02-21T23:58:32.016Z,8.84
